createdAt,value
2022-12-25T00:02:05.643Z,101304.97
2022-12-25T00:05:08.853Z,101299.38
2022-12-25T00:08:11.641Z,101300.56
2022-12-25T00:11:17.096Z,101309.44
2022-12-25T00:14:19.919Z,101307.06
2022-12-25T00:17:22.694Z,101307.34
2022-12-25T00:20:25.535Z,101307.56
2022-12-25T00:23:29.227Z,101321.75
2022-12-25T00:26:32.022Z,101332.06
2022-12-25T00:29:35.265Z,101336.94
2022-12-25T00:32:38.125Z,101334.31
2022-12-25T00:35:41.179Z,101326.72
2022-12-25T00:38:44.851Z,101340.66
2022-12-25T00:42:06.150Z,101340.41
2022-12-25T00:45:09.462Z,101346.41
2022-12-25T00:48:12.257Z,101359.81
2022-12-25T00:51:15.154Z,101366.44
2022-12-25T00:54:18.500Z,101367.34
2022-12-25T00:57:21.368Z,101366.38
2022-12-25T01:00:24.228Z,101368.03
2022-12-25T01:03:27.571Z,101368.81
2022-12-25T01:06:30.988Z,101369.81
2022-12-25T01:10:00.209Z,101377.94
2022-12-25T01:13:03.093Z,101381.25
2022-12-25T01:16:16.418Z,101378.66
2022-12-25T01:19:19.306Z,101381.25
2022-12-25T01:22:22.162Z,101387.34
2022-12-25T01:25:25.071Z,101385.78
2022-12-25T01:28:27.800Z,101387.16
2022-12-25T01:31:30.562Z,101386.72
2022-12-25T01:34:33.464Z,101388.88
2022-12-25T01:37:36.223Z,101388.34
2022-12-25T01:40:39.446Z,101390.00
2022-12-25T01:44:01.108Z,101377.94
2022-12-25T01:47:05.719Z,101370.38
2022-12-25T01:50:09.155Z,101379.69
2022-12-25T01:53:12.500Z,101382.84
2022-12-25T01:56:15.304Z,101389.56
2022-12-25T01:59:21.863Z,101395.66
2022-12-25T02:02:25.283Z,101400.91
2022-12-25T02:05:32.443Z,101394.69
2022-12-25T02:08:35.228Z,101397.31
2022-12-25T02:11:56.743Z,101398.28
2022-12-25T02:15:05.825Z,101398.94
2022-12-25T02:18:47.299Z,101408.88
2022-12-25T02:22:13.019Z,101398.13
2022-12-25T02:25:34.363Z,101387.03
2022-12-25T02:28:52.464Z,101389.50
2022-12-25T02:32:04.796Z,101386.72
2022-12-25T02:35:18.336Z,101384.09
2022-12-25T02:38:30.107Z,101390.53
2022-12-25T02:41:37.480Z,101389.97
2022-12-25T02:45:02.246Z,101386.13
2022-12-25T02:48:25.569Z,101381.59
2022-12-25T02:51:51.948Z,101388.97
2022-12-25T02:55:21.729Z,101398.25
2022-12-25T02:58:45.004Z,101402.16
2022-12-25T03:02:06.337Z,101402.09
2022-12-25T03:05:31.959Z,101394.91
2022-12-25T03:08:39.848Z,101395.47
2022-12-25T03:11:45.831Z,101391.31
2022-12-25T03:15:07.208Z,101395.03
2022-12-25T03:18:14.621Z,101395.97
2022-12-25T03:21:36.330Z,101403.81
2022-12-25T03:24:58.441Z,101397.56
2022-12-25T03:28:03.916Z,101408.59
2022-12-25T03:31:38.737Z,101409.16
2022-12-25T03:35:23.373Z,101398.25
2022-12-25T03:39:02.808Z,101405.91
2022-12-25T03:42:26.003Z,101403.13
2022-12-25T03:46:12.566Z,101420.41
2022-12-25T03:49:48.845Z,101433.94
2022-12-25T03:53:13.163Z,101429.94
2022-12-25T03:56:37.576Z,101426.94
2022-12-25T03:59:59.196Z,101430.78
2022-12-25T04:03:20.667Z,101432.69
2022-12-25T04:06:59.114Z,101433.59
2022-12-25T04:10:20.612Z,101430.28
2022-12-25T04:13:52.634Z,101433.69
2022-12-25T04:17:27.648Z,101422.28
2022-12-25T04:20:49.293Z,101424.09
2022-12-25T04:24:10.736Z,101424.34
2022-12-25T04:27:32.164Z,101421.47
2022-12-25T04:30:53.531Z,101415.69
2022-12-25T04:34:14.690Z,101422.78
2022-12-25T04:37:17.503Z,101419.63
2022-12-25T04:40:20.425Z,101418.78
2022-12-25T04:43:25.311Z,101417.13
2022-12-25T04:46:28.093Z,101419.06
2022-12-25T04:49:31.096Z,101415.09
2022-12-25T04:52:39.543Z,101422.91
2022-12-25T04:55:42.337Z,101427.63
2022-12-25T04:58:45.579Z,101419.50
2022-12-25T05:01:48.556Z,101414.38
2022-12-25T05:04:51.509Z,101422.53
2022-12-25T05:07:54.374Z,101435.53
2022-12-25T05:10:57.414Z,101429.00
2022-12-25T05:14:00.196Z,101432.72
2022-12-25T05:17:03.582Z,101437.69
2022-12-25T05:20:08.578Z,101443.34
2022-12-25T05:23:12.494Z,101447.72
2022-12-25T05:26:17.119Z,101445.50
2022-12-25T05:29:19.866Z,101438.69
2022-12-25T05:32:22.608Z,101438.41
2022-12-25T05:35:25.399Z,101437.97
2022-12-25T05:38:28.202Z,101441.31
2022-12-25T05:41:34.447Z,101427.19
2022-12-25T05:44:37.857Z,101428.66
2022-12-25T05:47:40.615Z,101441.59
2022-12-25T05:50:43.929Z,101446.09
2022-12-25T05:53:46.738Z,101440.47
2022-12-25T05:56:49.507Z,101441.16
2022-12-25T05:59:52.445Z,101439.66
2022-12-25T06:02:55.651Z,101450.28
2022-12-25T06:05:58.487Z,101448.78
2022-12-25T06:09:01.266Z,101451.13
2022-12-25T06:12:04.205Z,101457.63
2022-12-25T06:15:08.099Z,101474.94
2022-12-25T06:18:11.000Z,101482.09
2022-12-25T06:21:15.559Z,101489.84
2022-12-25T06:24:21.435Z,101489.13
2022-12-25T06:27:25.369Z,101489.78
2022-12-25T06:30:28.545Z,101494.75
2022-12-25T06:33:31.360Z,101488.22
2022-12-25T06:36:34.467Z,101496.69
2022-12-25T06:39:37.506Z,101493.38
2022-12-25T06:42:40.341Z,101494.38
2022-12-25T06:45:43.267Z,101486.41
2022-12-25T06:48:49.921Z,101506.38
2022-12-25T06:51:53.000Z,101500.69
2022-12-25T06:54:55.757Z,101496.25
2022-12-25T06:57:58.556Z,101504.50
2022-12-25T07:01:07.131Z,101497.69
2022-12-25T07:04:18.085Z,101497.94
2022-12-25T07:07:22.352Z,101497.56
2022-12-25T07:10:26.695Z,101505.44
2022-12-25T07:13:29.593Z,101499.28
2022-12-25T07:16:32.596Z,101504.03
2022-12-25T07:19:41.077Z,101506.34
2022-12-25T07:22:47.412Z,101515.84
2022-12-25T07:25:57.315Z,101524.34
2022-12-25T07:29:00.157Z,101528.13
2022-12-25T07:32:02.881Z,101527.72
2022-12-25T07:35:06.079Z,101538.78
2022-12-25T07:38:09.101Z,101538.34
2022-12-25T07:41:13.299Z,101547.56
2022-12-25T07:44:16.599Z,101551.69
2022-12-25T07:47:19.333Z,101553.84
2022-12-25T07:50:22.194Z,101554.09
2022-12-25T07:53:25.104Z,101551.19
2022-12-25T07:56:28.594Z,101551.97
2022-12-25T07:59:31.431Z,101560.72
2022-12-25T08:02:34.546Z,101547.28
2022-12-25T08:05:37.530Z,101554.56
2022-12-25T08:08:41.803Z,101557.78
2022-12-25T08:11:49.579Z,101557.44
2022-12-25T08:14:52.397Z,101558.03
2022-12-25T08:17:55.268Z,101555.50
2022-12-25T08:21:07.003Z,101560.00
2022-12-25T08:24:10.911Z,101552.69
2022-12-25T08:27:13.670Z,101547.94
2022-12-25T08:30:16.640Z,101541.59
2022-12-25T08:33:19.512Z,101538.56
2022-12-25T08:36:23.627Z,101546.13
2022-12-25T08:39:26.587Z,101550.34
2022-12-25T08:42:29.419Z,101557.22
2022-12-25T08:45:35.263Z,101558.91
2022-12-25T08:48:39.012Z,101553.69
2022-12-25T08:51:44.069Z,101543.13
2022-12-25T08:54:47.331Z,101545.63
2022-12-25T08:57:53.430Z,101549.19
2022-12-25T09:00:56.755Z,101545.84
2022-12-25T09:03:59.776Z,101560.19
2022-12-25T09:07:02.850Z,101558.13
2022-12-25T09:10:06.324Z,101568.00
2022-12-25T09:13:10.086Z,101571.47
2022-12-25T09:16:16.960Z,101567.25
2022-12-25T09:19:19.931Z,101569.19
2022-12-25T09:22:22.990Z,101573.09
2022-12-25T09:25:25.822Z,101573.78
2022-12-25T09:28:28.824Z,101578.69
2022-12-25T09:31:32.076Z,101573.66
2022-12-25T09:34:35.489Z,101572.69
2022-12-25T09:37:38.308Z,101555.41
2022-12-25T09:40:41.458Z,101559.81
2022-12-25T09:43:51.547Z,101566.84
2022-12-25T09:46:59.599Z,101565.25
2022-12-25T09:50:21.301Z,101567.34
2022-12-25T09:53:28.256Z,101568.59
2022-12-25T09:56:32.821Z,101571.31
2022-12-25T09:59:36.117Z,101573.66
2022-12-25T10:02:58.062Z,101582.13
2022-12-25T10:06:07.150Z,101580.25
2022-12-25T10:09:41.019Z,101574.84
2022-12-25T10:13:23.084Z,101565.94
2022-12-25T10:16:47.297Z,101574.13
2022-12-25T10:20:12.150Z,101558.53
2022-12-25T10:23:19.882Z,101556.19
2022-12-25T10:26:25.445Z,101542.59
2022-12-25T10:29:33.011Z,101532.09
2022-12-25T10:32:35.817Z,101541.91
2022-12-25T10:35:39.701Z,101544.03
2022-12-25T10:38:42.654Z,101541.28
2022-12-25T10:42:09.850Z,101527.38
2022-12-25T10:45:12.689Z,101534.19
2022-12-25T10:48:24.035Z,101543.78
2022-12-25T10:51:35.207Z,101547.72
2022-12-25T10:54:38.092Z,101544.59
2022-12-25T10:57:47.560Z,101560.72
2022-12-25T11:00:57.059Z,101542.31
2022-12-25T11:04:00.009Z,101539.06
2022-12-25T11:07:19.178Z,101536.00
2022-12-25T11:10:33.184Z,101537.56
2022-12-25T11:13:40.534Z,101525.56
2022-12-25T11:16:43.428Z,101529.28
2022-12-25T11:19:53.813Z,101533.38
2022-12-25T11:22:56.555Z,101524.59
2022-12-25T11:26:06.446Z,101530.13
2022-12-25T11:29:25.201Z,101534.56
2022-12-25T11:32:34.065Z,101530.75
2022-12-25T11:35:50.563Z,101522.44
2022-12-25T11:38:53.508Z,101518.63
2022-12-25T11:42:14.506Z,101526.56
2022-12-25T11:45:21.378Z,101522.53
2022-12-25T11:48:44.674Z,101515.31
2022-12-25T11:51:55.618Z,101517.56
2022-12-25T11:55:16.263Z,101515.50
2022-12-25T11:58:32.255Z,101524.53
2022-12-25T12:01:38.091Z,101522.84
2022-12-25T12:04:44.337Z,101513.84
2022-12-25T12:08:00.485Z,101511.34
2022-12-25T12:11:18.548Z,101508.03
2022-12-25T12:14:56.004Z,101498.69
2022-12-25T12:18:28.319Z,101502.66
2022-12-25T12:21:31.340Z,101505.56
2022-12-25T12:24:43.163Z,101496.13
2022-12-25T12:27:45.979Z,101494.63
2022-12-25T12:31:04.255Z,101488.91
2022-12-25T12:34:16.287Z,101484.63
2022-12-25T12:37:32.656Z,101489.50
2022-12-25T12:40:52.344Z,101488.47
2022-12-25T12:43:59.945Z,101491.69
2022-12-25T12:47:03.028Z,101489.00
2022-12-25T12:50:07.223Z,101494.97
2022-12-25T12:53:22.040Z,101493.56
2022-12-25T12:56:25.591Z,101483.59
2022-12-25T12:59:39.096Z,101486.53
2022-12-25T13:03:11.335Z,101485.72
2022-12-25T13:06:44.604Z,101486.81
2022-12-25T13:10:08.883Z,101487.75
2022-12-25T13:13:28.169Z,101495.75
2022-12-25T13:16:39.052Z,101494.50
2022-12-25T13:19:43.640Z,101505.81
2022-12-25T13:22:52.370Z,101494.38
2022-12-25T13:25:57.528Z,101496.19
2022-12-25T13:29:00.963Z,101499.78
2022-12-25T13:32:14.426Z,101505.72
2022-12-25T13:35:18.401Z,101501.44
2022-12-25T13:38:23.685Z,101497.13
2022-12-25T13:41:52.236Z,101501.81
2022-12-25T13:45:00.777Z,101500.59
2022-12-25T13:48:16.202Z,101513.56
2022-12-25T13:51:20.740Z,101513.75
2022-12-25T13:54:23.870Z,101515.00
2022-12-25T13:57:30.815Z,101511.91
2022-12-25T14:00:39.741Z,101517.47
2022-12-25T14:03:46.220Z,101514.38
2022-12-25T14:06:50.327Z,101498.16
2022-12-25T14:10:01.987Z,101502.63
2022-12-25T14:13:08.146Z,101502.81
2022-12-25T14:16:11.595Z,101508.53
2022-12-25T14:19:29.434Z,101509.53
2022-12-25T14:22:33.085Z,101504.41
2022-12-25T14:25:43.131Z,101504.00
2022-12-25T14:29:06.134Z,101505.44
2022-12-25T14:32:16.892Z,101510.59
2022-12-25T14:35:23.581Z,101510.34
2022-12-25T14:38:29.340Z,101515.09
2022-12-25T14:41:38.302Z,101516.09
2022-12-25T14:44:41.953Z,101521.59
2022-12-25T14:47:55.021Z,101526.69
2022-12-25T14:51:06.340Z,101527.41
2022-12-25T14:54:18.985Z,101522.84
2022-12-25T14:57:29.533Z,101525.06
2022-12-25T15:00:38.028Z,101521.31
2022-12-25T15:03:41.006Z,101523.53
2022-12-25T15:06:59.699Z,101524.94
2022-12-25T15:13:31.528Z,101524.22
2022-12-25T15:16:42.725Z,101528.22
2022-12-25T15:19:45.463Z,101523.66
2022-12-25T15:23:17.991Z,101519.50
2022-12-25T15:26:14.518Z,101534.75
2022-12-25T15:29:27.593Z,101538.19
2022-12-25T15:32:40.184Z,101535.53
2022-12-25T15:35:44.632Z,101540.59
2022-12-25T15:38:47.543Z,101534.19
2022-12-25T15:42:08.839Z,101539.63
2022-12-25T15:45:30.886Z,101536.53
2022-12-25T15:48:33.740Z,101536.97
2022-12-25T15:51:36.741Z,101525.69
2022-12-25T15:54:39.615Z,101524.19
2022-12-25T15:57:44.520Z,101524.09
2022-12-25T16:00:47.341Z,101516.56
2022-12-25T16:03:50.383Z,101513.19
2022-12-25T16:06:53.532Z,101507.09
2022-12-25T16:09:56.324Z,101504.47
2022-12-25T16:12:59.083Z,101514.03
2022-12-25T16:16:03.660Z,101511.50
2022-12-25T16:19:06.896Z,101513.88
2022-12-25T16:22:21.819Z,101524.25
2022-12-25T16:25:25.284Z,101517.69
2022-12-25T16:28:28.084Z,101518.25
2022-12-25T16:31:30.944Z,101516.00
2022-12-25T16:34:33.813Z,101514.88
2022-12-25T16:37:36.985Z,101515.69
2022-12-25T16:40:40.028Z,101519.41
2022-12-25T16:43:43.434Z,101513.28
2022-12-25T16:46:46.237Z,101494.25
2022-12-25T16:49:49.327Z,101496.13
2022-12-25T16:52:52.072Z,101495.09
2022-12-25T16:56:05.661Z,101498.22
2022-12-25T16:59:09.070Z,101502.81
2022-12-25T17:02:18.023Z,101510.19
2022-12-25T17:05:20.878Z,101511.56
2022-12-25T17:08:23.732Z,101508.06
2022-12-25T17:11:30.317Z,101519.28
2022-12-25T17:14:34.097Z,101519.03
2022-12-25T17:17:36.860Z,101520.22
2022-12-25T17:20:39.665Z,101520.88
2022-12-25T17:23:43.215Z,101518.94
2022-12-25T17:26:46.126Z,101518.44
2022-12-25T17:29:49.090Z,101523.56
2022-12-25T17:32:52.018Z,101520.25
2022-12-25T17:36:00.013Z,101523.91
2022-12-25T17:39:06.761Z,101529.34
2022-12-25T17:42:09.588Z,101539.72
2022-12-25T17:45:12.514Z,101526.22
2022-12-25T17:48:15.539Z,101521.41
2022-12-25T17:51:21.671Z,101526.00
2022-12-25T17:54:24.467Z,101531.78
2022-12-25T17:57:27.328Z,101525.97
2022-12-25T18:00:30.228Z,101525.97
2022-12-25T18:03:33.456Z,101513.84
2022-12-25T18:06:36.929Z,101513.97
2022-12-25T18:09:39.821Z,101521.72
2022-12-25T18:12:44.286Z,101509.59
2022-12-25T18:15:47.229Z,101497.56
2022-12-25T18:18:52.693Z,101506.81
2022-12-25T18:21:55.836Z,101496.81
2022-12-25T18:24:58.704Z,101492.19
2022-12-25T18:28:02.844Z,101493.97
2022-12-25T18:31:10.809Z,101489.50
2022-12-25T18:34:13.641Z,101493.91
2022-12-25T18:37:16.329Z,101488.16
2022-12-25T18:40:19.087Z,101487.75
2022-12-25T18:43:22.109Z,101470.22
2022-12-25T18:46:44.753Z,101472.50
2022-12-25T18:49:48.658Z,101466.38
2022-12-25T18:52:52.069Z,101460.16
2022-12-25T18:55:56.843Z,101453.16
2022-12-25T18:59:00.962Z,101454.75
2022-12-25T19:02:03.957Z,101463.66
2022-12-25T19:05:07.101Z,101466.00
2022-12-25T19:08:10.204Z,101469.13
2022-12-25T19:11:13.149Z,101477.22
2022-12-25T19:14:15.993Z,101463.06
2022-12-25T19:17:19.124Z,101464.72
2022-12-25T19:20:22.024Z,101475.31
2022-12-25T19:23:24.849Z,101483.44
2022-12-25T19:26:27.775Z,101484.09
2022-12-25T19:29:31.953Z,101469.81
2022-12-25T19:32:34.696Z,101461.47
2022-12-25T19:35:41.648Z,101463.34
2022-12-25T19:38:44.715Z,101456.38
2022-12-25T19:41:48.063Z,101454.50
2022-12-25T19:44:50.808Z,101452.31
2022-12-25T19:47:53.713Z,101437.25
2022-12-25T19:50:56.740Z,101441.59
2022-12-25T19:54:00.130Z,101442.25
2022-12-25T19:57:03.015Z,101434.13
2022-12-25T20:00:06.742Z,101429.16
2022-12-25T20:03:16.313Z,101437.41
2022-12-25T20:06:26.282Z,101439.22
2022-12-25T20:09:30.778Z,101441.72
2022-12-25T20:12:33.591Z,101449.03
2022-12-25T20:15:36.480Z,101440.63
2022-12-25T20:18:40.306Z,101443.47
2022-12-25T20:21:43.245Z,101447.94
2022-12-25T20:24:48.004Z,101445.75
2022-12-25T20:27:50.903Z,101447.72
2022-12-25T20:30:54.639Z,101455.13
2022-12-25T20:34:00.626Z,101455.78
2022-12-25T20:37:03.814Z,101459.66
2022-12-25T20:40:07.499Z,101467.19
2022-12-25T20:43:10.515Z,101459.31
2022-12-25T20:46:14.869Z,101460.63
2022-12-25T20:49:18.784Z,101450.59
2022-12-25T20:52:21.690Z,101440.47
2022-12-25T20:55:24.539Z,101450.81
2022-12-25T20:58:27.750Z,101452.75
2022-12-25T21:01:31.906Z,101457.69
2022-12-25T21:04:34.908Z,101437.34
2022-12-25T21:07:37.741Z,101442.16
2022-12-25T21:10:40.575Z,101447.13
2022-12-25T21:13:45.411Z,101458.84
2022-12-25T21:16:48.302Z,101457.03
2022-12-25T21:19:51.211Z,101455.31
2022-12-25T21:22:53.920Z,101455.47
2022-12-25T21:25:56.677Z,101434.69
2022-12-25T21:29:02.298Z,101430.78
2022-12-25T21:32:23.765Z,101430.69
2022-12-25T21:35:26.663Z,101420.66
2022-12-25T21:38:29.711Z,101424.94
2022-12-25T21:41:34.595Z,101424.09
2022-12-25T21:44:37.336Z,101413.53
2022-12-25T21:48:00.367Z,101403.13
2022-12-25T21:51:31.094Z,101413.00
2022-12-25T21:54:34.450Z,101423.41
2022-12-25T21:57:37.347Z,101429.63
2022-12-25T22:00:40.277Z,101429.56
2022-12-25T22:03:44.275Z,101424.03
2022-12-25T22:07:06.019Z,101423.56
2022-12-25T22:10:08.952Z,101434.59
2022-12-25T22:13:30.372Z,101421.28
2022-12-25T22:16:51.860Z,101422.53
2022-12-25T22:19:55.002Z,101425.13
2022-12-25T22:22:58.586Z,101427.06
2022-12-25T22:26:04.538Z,101429.41
2022-12-25T22:29:07.335Z,101421.34
2022-12-25T22:32:11.645Z,101406.13
2022-12-25T22:35:15.418Z,101401.91
2022-12-25T22:38:18.277Z,101393.66
2022-12-25T22:41:21.078Z,101385.69
2022-12-25T22:44:25.874Z,101383.50
2022-12-25T22:47:28.671Z,101372.34
2022-12-25T22:50:31.507Z,101375.50
2022-12-25T22:53:34.291Z,101371.44
2022-12-25T22:56:37.214Z,101366.28
2022-12-25T22:59:40.117Z,101363.13
2022-12-25T23:02:43.137Z,101361.06
2022-12-25T23:05:54.170Z,101365.25
2022-12-25T23:08:57.115Z,101365.00
2022-12-25T23:12:00.189Z,101358.50
2022-12-25T23:15:03.039Z,101359.84
2022-12-25T23:18:24.982Z,101374.91
2022-12-25T23:21:47.072Z,101379.00
2022-12-25T23:25:08.284Z,101378.84
2022-12-25T23:28:11.133Z,101392.53
2022-12-25T23:31:15.213Z,101385.25
2022-12-25T23:34:18.193Z,101386.44
2022-12-25T23:37:21.655Z,101388.81
2022-12-25T23:40:24.403Z,101388.69
2022-12-25T23:43:27.201Z,101396.53
2022-12-25T23:46:30.242Z,101394.81
2022-12-25T23:49:33.314Z,101390.41
2022-12-25T23:52:36.075Z,101384.59
2022-12-25T23:55:39.034Z,101383.13
2022-12-25T23:58:41.999Z,101380.47
